Terminal Aerodrome Forecast
Issued by NWS Cleveland, OH

Home | Current Version | Previous Version | Graphics & Text | Print | Product List | Glossary On
Versions: 1 2 3 4 5 6 7 8 9 10 11 12 13 14 15 16 17 18 19 20 21 22 23 24 25 26 27
000
FTUS41 KCLE 212100 AAA
TAFCLE
TAF AMD
KCLE 212140Z 2122/2224 34012KT 6SM -SHRA BKN015 OVC025
      TEMPO 2122/2202 4SM -RA
     FM220400 35008KT P6SM OVC025
     FM221400 36010KT P6SM OVC040=

USA.gov is the U.S. government's official web portal to all federal, state and local government web resources and services.